createdAt,value
2023-01-11T00:08:04.830Z,8.4
2023-01-11T00:18:06.889Z,8.7
2023-01-11T00:28:08.625Z,8.6
2023-01-11T00:38:11.174Z,8.7
2023-01-11T00:48:13.332Z,8.9
2023-01-11T00:58:15.547Z,8.9
2023-01-11T01:08:17.233Z,9
2023-01-11T01:18:19.405Z,9
2023-01-11T01:28:21.478Z,9.1
2023-01-11T01:38:23.217Z,9.1
2023-01-11T01:48:24.933Z,9.3
2023-01-11T01:58:26.964Z,9.5
2023-01-11T02:08:29.440Z,9.5
2023-01-11T02:18:31.523Z,9.4
2023-01-11T02:28:33.765Z,9.3
2023-01-11T02:38:35.889Z,9.2
2023-01-11T02:48:37.598Z,9.1
2023-01-11T02:58:40.112Z,9.1
2023-01-11T03:08:42.721Z,9
2023-01-11T03:18:45.103Z,8.8
2023-01-11T03:28:47.411Z,8.7
2023-01-11T03:38:49.520Z,8.7
2023-01-11T03:48:51.537Z,8.6
2023-01-11T03:58:53.616Z,8.6
2023-01-11T04:18:57.444Z,8.8
2023-01-11T04:28:59.486Z,8.8
2023-01-11T04:39:01.489Z,8.9
2023-01-11T04:49:03.373Z,9
2023-01-11T04:59:05.236Z,9
2023-01-11T05:09:07.429Z,9.1
2023-01-11T05:19:09.517Z,9.1
2023-01-11T05:29:11.926Z,9.2
2023-01-11T05:39:14.319Z,9.2
2023-01-11T05:49:16.574Z,9.2
2023-01-11T05:59:18.367Z,9.5
2023-01-11T06:09:20.902Z,9.8
2023-01-11T06:19:22.987Z,9.9
2023-01-11T06:29:24.684Z,9.9
2023-01-11T06:39:26.718Z,10
2023-01-11T06:49:28.928Z,10.1
2023-01-11T06:59:31.474Z,10.2
2023-01-11T07:09:33.649Z,10.3
2023-01-11T07:19:36.098Z,10.4
2023-01-11T07:29:38.757Z,10.5
2023-01-11T07:39:43.702Z,10.5
2023-01-11T07:49:43.741Z,10.6
2023-01-11T07:59:46.095Z,10.7
2023-01-11T08:09:48.039Z,10.7
2023-01-11T08:19:50.560Z,10.7
2023-01-11T08:29:52.389Z,10.7
2023-01-11T08:39:54.451Z,10.6
2023-01-11T08:49:56.551Z,10.7
2023-01-11T08:59:58.470Z,10.8
2023-01-11T09:10:01.074Z,10.9
2023-01-11T09:20:02.907Z,10.7
2023-01-11T09:30:05.574Z,10.6
2023-01-11T09:40:06.842Z,10.5
2023-01-11T09:50:08.817Z,10.4
2023-01-11T10:00:11.114Z,10.3
2023-01-11T10:20:15.513Z,10.2
2023-01-11T10:30:17.741Z,10.2
2023-01-11T10:40:19.423Z,10.1
2023-01-11T10:50:21.736Z,10.1
2023-01-11T11:00:24.312Z,10.2
2023-01-11T11:10:26.390Z,10.3
2023-01-11T11:20:28.243Z,10.3
2023-01-11T11:30:30.837Z,10.1
2023-01-11T11:40:33.340Z,10.2
2023-01-11T11:50:44.993Z,10.4
2023-01-11T12:00:37.792Z,10.7
2023-01-11T12:10:39.991Z,10.6
2023-01-11T12:20:42.067Z,10.5
2023-01-11T12:40:46.171Z,10.8
2023-01-11T12:50:48.490Z,10.6
2023-01-11T13:00:50.498Z,10.4
2023-01-11T13:10:52.339Z,10.2
2023-01-11T13:21:01.051Z,10.4
2023-01-11T13:30:56.804Z,10.6
2023-01-11T13:40:59.037Z,10.5
2023-01-11T13:51:01.101Z,10.5
2023-01-11T14:01:03.775Z,10.4
2023-01-11T14:11:05.519Z,10.4
2023-01-11T14:21:07.452Z,10.3
2023-01-11T14:31:09.614Z,10.3
2023-01-11T14:41:11.544Z,10.2
2023-01-11T14:51:13.214Z,10.3
2023-01-11T15:01:15.129Z,10.3
2023-01-11T15:11:17.461Z,10.3
2023-01-11T15:21:19.435Z,10.2
2023-01-11T15:31:21.988Z,10.2
2023-01-11T15:41:24.483Z,10.1
2023-01-11T15:51:27.075Z,9.8
2023-01-11T16:01:29.122Z,9.8
2023-01-11T16:21:33.364Z,9.6
2023-01-11T16:31:35.768Z,9.6
2023-01-11T16:41:38.248Z,9.4
2023-01-11T16:51:40.138Z,9.2
2023-01-11T17:01:42.408Z,9.1
2023-01-11T17:11:44.554Z,9
2023-01-11T17:21:46.878Z,8.9
2023-01-11T17:31:49.230Z,8.9
2023-01-11T17:41:51.162Z,9.1
2023-01-11T17:51:53.097Z,9.3
2023-01-11T18:01:55.130Z,9.3
2023-01-11T18:11:56.825Z,9.1
2023-01-11T18:21:58.766Z,9.2
2023-01-11T18:32:01.371Z,9
2023-01-11T18:42:03.150Z,9
2023-01-11T18:52:04.975Z,8.9
2023-01-11T19:02:16.496Z,9
2023-01-11T19:12:08.903Z,9
2023-01-11T19:22:11.624Z,8.8
2023-01-11T19:32:13.595Z,8.7
2023-01-11T19:42:15.697Z,8.7
2023-01-11T19:52:17.728Z,8.7
2023-01-11T20:02:19.725Z,8.8
2023-01-11T20:02:41.554Z,8.8
2023-01-11T20:12:28.435Z,8.6
2023-01-11T20:22:30.664Z,8.8
2023-01-11T20:32:41.309Z,8.8
2023-01-11T20:42:34.894Z,8.8
2023-01-11T20:52:37.357Z,8.9
2023-01-11T21:02:39.643Z,9
2023-01-11T21:12:42.113Z,9.2
2023-01-11T21:22:44.278Z,9.2
2023-01-11T21:32:46.857Z,8.7
2023-01-11T21:42:49.404Z,8.3
2023-01-11T21:52:51.135Z,8.2
2023-01-11T22:02:53.738Z,8.2
2023-01-11T22:22:57.293Z,8.4
2023-01-11T22:32:59.366Z,8.4
2023-01-11T22:43:01.457Z,8.6
2023-01-11T22:53:03.614Z,8.9
2023-01-11T23:03:05.565Z,9.1
2023-01-11T23:13:07.959Z,9.2
2023-01-11T23:23:10.336Z,9.1
2023-01-11T23:33:12.187Z,8.7
2023-01-11T23:43:13.973Z,8.4
2023-01-11T23:53:16.572Z,8.3
